Time;durP1;ratioP1;P1;durP2;ratioP2;P2;SDS_P1;SDS_P2;PMS_P1;PMS_P2;Temp;Humidity;BMP_temperature;BMP_pressure;BME280_temperature;BME280_humidity;BME280_pressure;Samples;Min_cycle;Max_cycle;Signal;HPM_P1;HPM_P2
2023/01/07 00:02:40;;;;;;;30.27;15.73;;;2.10;99.90;;;;;;10160351;29;20197;-81
2023/01/07 00:08:01;;;;;;;29.60;15.83;;;2.10;99.90;;;;;;10174500;29;20431;-79
2023/01/07 00:13:22;;;;;;;34.23;19.57;;;2.10;99.90;;;;;;10172024;29;20225;-81
2023/01/07 00:18:44;;;;;;;33.17;19.03;;;2.10;99.90;;;;;;10158520;29;20202;-79
2023/01/07 00:24:08;;;;;;;39.73;18.37;;;2.00;99.90;;;;;;10157958;29;20205;-82
2023/01/07 00:29:28;;;;;;;29.90;15.27;;;2.00;99.90;;;;;;10184266;29;20254;-82
2023/01/07 00:34:50;;;;;;;24.60;13.77;;;1.90;99.90;;;;;;10183535;29;20233;-82
2023/01/07 00:40:11;;;;;;;23.80;13.87;;;1.90;99.90;;;;;;10196679;29;20280;-79
2023/01/07 00:45:35;;;;;;;28.53;13.70;;;1.90;99.90;;;;;;10200967;29;20284;-79
2023/01/07 00:50:56;;;;;;;22.77;11.27;;;1.90;99.90;;;;;;10183196;29;20205;-79
2023/01/07 00:56:17;;;;;;;20.13;9.00;;;2.00;99.90;;;;;;10182900;29;20230;-78
2023/01/07 01:01:39;;;;;;;14.20;8.50;;;2.10;99.90;;;;;;10195984;29;20235;-78
2023/01/07 01:07:00;;;;;;;15.27;8.20;;;2.00;99.90;;;;;;10195739;29;20240;-81
2023/01/07 01:12:22;;;;;;;16.87;6.83;;;2.00;99.90;;;;;;10196582;29;20214;-82
2023/01/07 01:17:43;;;;;;;13.83;7.00;;;2.10;99.90;;;;;;10198848;29;20232;-80
2023/01/07 01:23:05;;;;;;;18.03;7.60;;;2.10;99.90;;;;;;10217961;29;20188;-81
2023/01/07 01:28:26;;;;;;;16.93;7.60;;;2.20;99.90;;;;;;10193963;29;20551;-82
2023/01/07 01:33:47;;;;;;;20.67;8.60;;;2.30;99.90;;;;;;10195528;29;20310;-81
2023/01/07 01:39:10;;;;;;;22.90;10.03;;;2.20;99.90;;;;;;10182267;29;20206;-80
2023/01/07 01:44:47;;;;;;;20.03;11.40;;;2.10;99.90;;;;;;10182216;29;20298;-81
2023/01/07 01:50:37;;;;;;;25.70;12.43;;;2.20;99.90;;;;;;10202058;29;20196;-80
2023/01/07 01:56:06;;;;;;;20.73;10.17;;;2.20;99.90;;;;;;10216471;29;20232;-80
2023/01/07 02:01:27;;;;;;;19.13;9.97;;;2.30;99.90;;;;;;10189684;29;20276;-82
2023/01/07 02:07:03;;;;;;;18.93;9.67;;;2.40;99.90;;;;;;10216384;29;20278;-83
2023/01/07 02:12:47;;;;;;;19.00;9.13;;;2.50;99.90;;;;;;10188979;29;20204;-83
2023/01/07 02:18:42;;;;;;;15.43;7.90;;;2.50;99.90;;;;;;10204355;29;20245;-83
2023/01/07 02:24:43;;;;;;;16.60;7.27;;;2.50;99.90;;;;;;10225369;29;20259;-80
2023/01/07 02:30:32;;;;;;;17.80;9.33;;;2.60;99.90;;;;;;10208886;29;20279;-80
2023/01/07 02:36:02;;;;;;;16.90;7.03;;;2.60;99.90;;;;;;10208530;29;20577;-80
2023/01/07 02:41:53;;;;;;;13.80;6.27;;;2.70;99.90;;;;;;10209077;29;20216;-81
2023/01/07 02:47:28;;;;;;;10.10;4.57;;;2.60;99.90;;;;;;10222128;29;20214;-82
2023/01/07 02:52:52;;;;;;;6.93;4.37;;;2.60;99.90;;;;;;10222374;29;20222;-81
2023/01/07 02:58:43;;;;;;;7.50;4.83;;;2.60;99.90;;;;;;10197952;29;20217;-82
2023/01/07 03:04:44;;;;;;;10.37;5.80;;;2.60;99.90;;;;;;10208341;29;20233;-81
2023/01/07 03:10:28;;;;;;;13.80;7.40;;;2.50;99.90;;;;;;10126354;29;20224;-83
2023/01/07 03:16:16;;;;;;;13.50;7.40;;;2.50;99.90;;;;;;10119352;29;20586;-80
2023/01/07 03:21:39;;;;;;;13.53;8.30;;;2.50;99.90;;;;;;10103785;29;20210;-79
2023/01/07 03:27:03;;;;;;;11.60;6.83;;;2.50;99.90;;;;;;10090279;29;20241;-83
2023/01/07 03:32:30;;;;;;;13.83;7.13;;;2.50;99.90;;;;;;10090312;29;20289;-80
2023/01/07 03:37:52;;;;;;;9.53;4.83;;;2.50;99.90;;;;;;10090172;29;20242;-79
2023/01/07 03:43:17;;;;;;;7.87;4.20;;;2.60;99.90;;;;;;10159848;29;20217;-80
2023/01/07 03:48:39;;;;;;;6.80;4.20;;;2.60;99.90;;;;;;10187956;29;20213;-81
2023/01/07 03:54:00;;;;;;;8.23;3.83;;;2.60;99.90;;;;;;10212106;29;20366;-83
2023/01/07 03:59:21;;;;;;;6.97;4.00;;;2.60;99.90;;;;;;10185594;29;20248;-80
2023/01/07 04:04:43;;;;;;;9.27;4.63;;;2.60;99.90;;;;;;10200696;29;20223;-83
2023/01/07 04:10:06;;;;;;;12.20;6.23;;;2.60;99.90;;;;;;10197975;29;20492;-83
2023/01/07 04:15:29;;;;;;;14.20;5.90;;;2.70;99.90;;;;;;10197687;29;20421;-82
2023/01/07 04:20:50;;;;;;;9.70;4.27;;;2.80;99.90;;;;;;10199912;29;20499;-83
2023/01/07 04:26:11;;;;;;;10.73;4.10;;;2.90;99.90;;;;;;10197127;29;20473;-80
2023/01/07 04:31:34;;;;;;;8.27;3.70;;;2.90;99.90;;;;;;10173156;29;20220;-80
2023/01/07 04:36:55;;;;;;;9.33;3.53;;;2.80;99.90;;;;;;10157699;29;20248;-81
2023/01/07 04:42:17;;;;;;;8.77;3.90;;;2.90;99.90;;;;;;10157823;29;20252;-80
2023/01/07 04:47:38;;;;;;;13.03;4.90;;;3.00;99.90;;;;;;10157551;29;20194;-81
2023/01/07 04:52:59;;;;;;;5.97;3.40;;;3.00;99.90;;;;;;10170719;29;20327;-82
2023/01/07 04:58:23;;;;;;;16.73;7.50;;;3.00;99.90;;;;;;10170442;29;20209;-80
2023/01/07 05:03:45;;;;;;;23.67;9.57;;;3.10;99.90;;;;;;10146893;29;20445;-83
2023/01/07 05:09:07;;;;;;;16.47;6.37;;;3.10;99.90;;;;;;10146822;29;20203;-83
2023/01/07 05:14:28;;;;;;;15.80;6.47;;;3.10;99.90;;;;;;10170175;29;20225;-83
2023/01/07 05:19:50;;;;;;;11.20;6.10;;;3.00;99.90;;;;;;10156275;29;20236;-80
2023/01/07 05:25:11;;;;;;;8.50;3.73;;;3.00;99.90;;;;;;10156521;29;20333;-80
2023/01/07 05:30:33;;;;;;;10.27;4.13;;;3.10;99.90;;;;;;10166005;29;20245;-83
2023/01/07 05:35:56;;;;;;;11.03;4.90;;;3.10;99.90;;;;;;10169677;29;20251;-83
2023/01/07 05:41:17;;;;;;;8.70;4.10;;;3.10;99.90;;;;;;10159309;29;20228;-83
2023/01/07 05:46:39;;;;;;;12.60;5.90;;;3.10;99.90;;;;;;10156814;29;20216;-83
2023/01/07 05:52:00;;;;;;;18.20;6.07;;;3.10;99.90;;;;;;10170060;29;20439;-80
2023/01/07 05:57:21;;;;;;;13.77;4.80;;;3.10;99.90;;;;;;10180157;29;20231;-83
2023/01/07 06:02:42;;;;;;;9.60;3.73;;;3.20;99.90;;;;;;10174376;29;20202;-81
2023/01/07 06:08:04;;;;;;;13.80;4.40;;;3.20;99.90;;;;;;10179176;29;20203;-81
2023/01/07 06:13:25;;;;;;;12.23;6.00;;;3.20;99.90;;;;;;10161410;29;20252;-83
2023/01/07 06:18:46;;;;;;;11.77;6.07;;;3.20;99.90;;;;;;10158763;29;20284;-84
2023/01/07 06:24:09;;;;;;;10.50;6.57;;;3.20;99.90;;;;;;10156297;29;20201;-82
2023/01/07 06:29:30;;;;;;;8.97;6.00;;;3.20;99.90;;;;;;10194509;29;20228;-84
2023/01/07 06:34:51;;;;;;;20.03;8.57;;;3.20;99.90;;;;;;10214779;29;20514;-81
2023/01/07 06:40:12;;;;;;;15.13;7.87;;;3.10;99.90;;;;;;10188112;29;20207;-80
2023/01/07 06:45:34;;;;;;;17.00;9.00;;;3.10;99.90;;;;;;10188252;29;20228;-80
2023/01/07 06:50:55;;;;;;;13.63;7.43;;;3.10;99.90;;;;;;10189020;29;20200;-83
2023/01/07 06:56:16;;;;;;;18.23;8.90;;;3.10;99.90;;;;;;10200698;29;20256;-83
2023/01/07 07:01:37;;;;;;;17.90;9.23;;;3.10;99.90;;;;;;10203029;29;20200;-84
2023/01/07 07:06:58;;;;;;;22.57;13.10;;;3.00;99.90;;;;;;10200621;29;20284;-84
2023/01/07 07:12:19;;;;;;;53.07;25.57;;;3.00;99.90;;;;;;10213927;29;20205;-82
2023/01/07 07:17:40;;;;;;;102.27;50.00;;;3.00;99.90;;;;;;10200061;29;20232;-84
2023/01/07 07:23:03;;;;;;;75.53;38.53;;;3.00;99.90;;;;;;10200156;29;20216;-83
2023/01/07 07:28:23;;;;;;;62.20;34.30;;;2.90;99.90;;;;;;10185981;29;20229;-84
2023/01/07 07:33:44;;;;;;;64.73;33.67;;;3.00;99.90;;;;;;10199969;29;20204;-80
2023/01/07 07:39:06;;;;;;;57.87;28.80;;;3.10;99.90;;;;;;10200498;29;20387;-80
2023/01/07 07:44:26;;;;;;;48.80;26.20;;;3.10;99.90;;;;;;10201091;29;20260;-83
2023/01/07 07:49:49;;;;;;;56.87;31.03;;;3.10;99.90;;;;;;10198741;29;20284;-84
2023/01/07 07:55:10;;;;;;;47.70;27.37;;;3.20;99.90;;;;;;10212357;29;20224;-84
2023/01/07 08:00:32;;;;;;;35.63;23.13;;;3.20;99.90;;;;;;10198816;29;20192;-83
2023/01/07 08:05:53;;;;;;;33.20;19.87;;;3.20;99.90;;;;;;10201322;29;20271;-84
2023/01/07 08:11:14;;;;;;;25.13;15.87;;;3.30;99.90;;;;;;10185454;29;20200;-84
2023/01/07 08:16:36;;;;;;;22.93;13.40;;;3.40;99.90;;;;;;10199095;29;20233;-84
2023/01/07 08:21:57;;;;;;;22.60;14.33;;;3.30;99.90;;;;;;10206806;29;20217;-84
2023/01/07 08:27:18;;;;;;;22.73;14.40;;;3.40;99.90;;;;;;10199137;29;20253;-84
2023/01/07 08:32:39;;;;;;;17.83;12.50;;;3.40;99.90;;;;;;10210960;29;20204;-85
2023/01/07 08:38:06;;;;;;;18.53;11.37;;;3.30;99.90;;;;;;10197093;29;20268;-84
2023/01/07 08:43:27;;;;;;;15.50;10.23;;;3.40;99.90;;;;;;10197192;29;20244;-80
2023/01/07 08:48:49;;;;;;;17.60;12.07;;;3.40;99.90;;;;;;10196910;29;20213;-83
2023/01/07 08:54:10;;;;;;;30.80;18.93;;;3.50;99.90;;;;;;10197619;29;20213;-83
2023/01/07 08:59:31;;;;;;;28.07;18.17;;;3.40;99.90;;;;;;10196656;29;20221;-80
2023/01/07 09:04:52;;;;;;;22.60;14.53;;;3.50;99.90;;;;;;10196276;29;20445;-83
2023/01/07 09:10:13;;;;;;;23.37;14.30;;;3.50;99.90;;;;;;10183539;29;20197;-81
2023/01/07 09:15:35;;;;;;;23.93;13.93;;;3.60;99.90;;;;;;10209928;29;20251;-80
2023/01/07 09:20:56;;;;;;;37.60;18.47;;;3.60;99.90;;;;;;10195704;29;20204;-84
2023/01/07 09:26:17;;;;;;;25.20;13.17;;;3.70;99.90;;;;;;10184111;29;20246;-80
2023/01/07 09:31:38;;;;;;;22.77;13.87;;;3.70;99.90;;;;;;10172804;29;20534;-83
2023/01/07 09:36:59;;;;;;;28.57;17.20;;;3.70;99.90;;;;;;10143419;29;20236;-84
2023/01/07 09:42:30;;;;;;;19.63;13.57;;;3.70;99.90;;;;;;10170201;29;20203;-80
2023/01/07 09:47:56;;;;;;;30.00;16.87;;;3.60;99.90;;;;;;10169538;29;20512;-80
2023/01/07 09:53:24;;;;;;;62.63;28.70;;;3.50;99.90;;;;;;10156874;29;20196;-80
2023/01/07 09:58:47;;;;;;;75.93;35.43;;;3.40;99.90;;;;;;10156535;29;20222;-81
2023/01/07 10:04:29;;;;;;;87.47;38.60;;;3.50;99.90;;;;;;10143790;29;20210;-84
2023/01/07 10:10:12;;;;;;;59.00;30.57;;;3.50;99.90;;;;;;10165664;29;20267;-84
2023/01/07 10:16:17;;;;;;;64.73;34.97;;;3.50;99.90;;;;;;10166986;29;20256;-79
2023/01/07 10:21:55;;;;;;;37.90;23.30;;;3.50;99.90;;;;;;10164221;29;20590;-84
2023/01/07 10:27:30;;;;;;;52.83;28.43;;;3.50;99.90;;;;;;10172039;29;20303;-84
2023/01/07 10:33:11;;;;;;;33.20;19.77;;;3.60;99.90;;;;;;10194081;29;20205;-81
2023/01/07 10:38:36;;;;;;;27.27;15.60;;;3.60;99.90;;;;;;10211071;29;20249;-81
2023/01/07 10:44:07;;;;;;;33.97;21.43;;;3.70;99.90;;;;;;10210214;29;20198;-81
2023/01/07 10:49:48;;;;;;;20.67;12.37;;;3.80;99.90;;;;;;10201421;29;20258;-80
2023/01/07 10:55:47;;;;;;;32.90;17.53;;;3.80;99.90;;;;;;10189589;29;20256;-80
2023/01/07 11:01:27;;;;;;;29.70;18.93;;;3.80;99.90;;;;;;10204617;29;20205;-82
2023/01/07 11:07:03;;;;;;;17.57;12.47;;;3.80;99.90;;;;;;10205034;29;20232;-83
2023/01/07 11:12:32;;;;;;;20.10;13.13;;;3.70;99.90;;;;;;10187075;29;20201;-83
2023/01/07 11:17:58;;;;;;;17.93;12.33;;;3.60;99.90;;;;;;10198759;29;20284;-81
2023/01/07 11:23:25;;;;;;;30.07;17.90;;;3.60;99.90;;;;;;10187982;29;20210;-84
2023/01/07 11:28:51;;;;;;;26.83;14.90;;;3.60;99.90;;;;;;10199479;29;20255;-80
2023/01/07 11:34:24;;;;;;;24.73;15.27;;;3.60;99.90;;;;;;10200412;29;20205;-84
2023/01/07 11:39:57;;;;;;;29.67;16.57;;;3.60;99.90;;;;;;10201186;29;20201;-83
2023/01/07 11:45:26;;;;;;;58.43;29.00;;;3.60;99.90;;;;;;10198702;29;20208;-83
2023/01/07 11:50:57;;;;;;;48.23;23.40;;;3.60;99.90;;;;;;10212642;29;20227;-82
2023/01/07 11:56:20;;;;;;;32.43;17.03;;;3.80;99.90;;;;;;10200341;29;20424;-83
2023/01/07 12:01:44;;;;;;;64.03;30.30;;;3.80;99.90;;;;;;10212869;29;20201;-80
2023/01/07 12:07:16;;;;;;;44.37;22.27;;;3.90;99.90;;;;;;10217109;29;20210;-83
2023/01/07 12:12:43;;;;;;;32.90;18.57;;;3.90;99.90;;;;;;10186416;29;20205;-79
2023/01/07 12:18:08;;;;;;;32.73;17.17;;;4.00;99.90;;;;;;10200769;29;20295;-79
2023/01/07 12:23:40;;;;;;;23.87;13.90;;;3.90;99.90;;;;;;10211395;29;20284;-82
2023/01/07 12:29:39;;;;;;;20.83;11.07;;;3.80;99.90;;;;;;10211006;29;20277;-83
2023/01/07 12:35:07;;;;;;;27.10;15.63;;;3.80;99.90;;;;;;10184252;29;20576;-82
2023/01/07 12:40:40;;;;;;;29.33;19.07;;;3.70;99.90;;;;;;10184058;29;20212;-83
2023/01/07 12:46:06;;;;;;;23.67;16.00;;;3.70;99.90;;;;;;10197616;29;20203;-84
2023/01/07 12:51:44;;;;;;;21.07;14.73;;;3.60;99.90;;;;;;10211354;29;20491;-83
2023/01/07 12:57:15;;;;;;;35.20;21.10;;;3.60;99.90;;;;;;10197677;29;20225;-80
2023/01/07 13:02:41;;;;;;;37.03;22.87;;;3.60;99.90;;;;;;10199241;29;20458;-80
2023/01/07 13:08:17;;;;;;;35.50;20.23;;;3.60;99.90;;;;;;10197125;29;20201;-84
2023/01/07 13:13:52;;;;;;;21.77;12.57;;;3.50;99.90;;;;;;10182756;29;20205;-80
2023/01/07 13:19:14;;;;;;;26.00;17.20;;;3.50;99.90;;;;;;10212139;29;20224;-80
2023/01/07 13:24:41;;;;;;;16.23;11.03;;;3.30;99.90;;;;;;10210607;29;20229;-83
2023/01/07 13:30:24;;;;;;;26.67;16.33;;;3.30;99.90;;;;;;10208263;29;20573;-79
2023/01/07 13:36:09;;;;;;;35.53;20.03;;;3.30;99.90;;;;;;10197807;29;20230;-82
2023/01/07 13:41:56;;;;;;;35.33;19.90;;;3.30;99.90;;;;;;10197016;29;20209;-80
2023/01/07 13:47:20;;;;;;;46.57;24.60;;;3.20;99.90;;;;;;10203283;29;20281;-80
2023/01/07 13:52:44;;;;;;;70.60;31.00;;;3.20;99.90;;;;;;10204020;29;20213;-79
2023/01/07 13:58:27;;;;;;;81.77;34.30;;;3.20;99.90;;;;;;10189448;29;20293;-83
2023/01/07 14:04:02;;;;;;;82.40;42.23;;;3.20;99.90;;;;;;10202794;29;20222;-80
2023/01/07 14:09:34;;;;;;;49.60;29.53;;;3.20;99.90;;;;;;10202260;29;20267;-79
2023/01/07 14:15:02;;;;;;;40.47;23.57;;;3.20;99.90;;;;;;10188958;29;20279;-80
2023/01/07 14:20:48;;;;;;;65.73;32.97;;;3.20;99.90;;;;;;10204491;29;20330;-80
2023/01/07 14:26:29;;;;;;;50.37;27.60;;;3.20;99.90;;;;;;10188197;29;20236;-80
2023/01/07 14:31:51;;;;;;;41.53;24.67;;;3.10;99.90;;;;;;10163124;29;20197;-84
2023/01/07 14:37:15;;;;;;;44.27;25.77;;;3.10;99.90;;;;;;10149712;29;20233;-80
2023/01/07 14:42:41;;;;;;;32.67;19.27;;;3.00;99.90;;;;;;10162563;29;20406;-83
2023/01/07 14:48:08;;;;;;;38.90;23.07;;;3.00;99.90;;;;;;10162367;29;20219;-78
2023/01/07 14:53:49;;;;;;;18.07;11.80;;;3.00;99.90;;;;;;10161617;29;20201;-82
2023/01/07 14:59:16;;;;;;;13.70;9.07;;;3.00;99.90;;;;;;10183586;29;20229;-80
2023/01/07 15:04:52;;;;;;;25.87;14.37;;;3.00;99.90;;;;;;10188122;29;20238;-80
2023/01/07 15:16:06;;;;;;;42.07;19.27;;;3.00;99.90;;;;;;10174339;29;20413;-83
2023/01/07 15:21:48;;;;;;;91.33;36.27;;;3.00;99.90;;;;;;10147530;29;20201;-78
2023/01/07 15:27:36;;;;;;;53.90;30.23;;;3.00;99.90;;;;;;10166532;29;20275;-78
2023/01/07 15:33:09;;;;;;;38.47;24.40;;;3.00;99.90;;;;;;10199899;29;20204;-79
2023/01/07 15:38:43;;;;;;;31.80;19.37;;;3.00;99.90;;;;;;10212611;29;20240;-82
2023/01/07 15:44:25;;;;;;;38.10;20.60;;;3.00;99.90;;;;;;10201500;29;20252;-78
2023/01/07 15:49:48;;;;;;;46.53;27.97;;;2.90;99.90;;;;;;10207310;29;20231;-79
2023/01/07 15:55:14;;;;;;;60.13;30.27;;;2.90;99.90;;;;;;10208683;29;20217;-79
2023/01/07 16:00:35;;;;;;;60.57;29.00;;;2.80;99.90;;;;;;10198696;29;20232;-80
2023/01/07 16:05:58;;;;;;;56.70;27.97;;;2.80;99.90;;;;;;10197658;29;20207;-77
2023/01/07 16:11:28;;;;;;;66.87;30.73;;;2.80;99.90;;;;;;10198678;29;20535;-78
2023/01/07 16:17:10;;;;;;;65.10;29.37;;;2.80;99.90;;;;;;10211412;29;20232;-79
2023/01/07 16:22:32;;;;;;;38.70;20.10;;;2.80;99.90;;;;;;10199044;29;20204;-83
2023/01/07 16:27:54;;;;;;;36.63;19.97;;;2.80;99.90;;;;;;10183527;29;20421;-78
2023/01/07 16:33:20;;;;;;;41.30;22.27;;;2.80;99.90;;;;;;10184149;29;20554;-78
2023/01/07 16:38:43;;;;;;;47.67;24.70;;;2.80;99.90;;;;;;10184345;29;20234;-79
2023/01/07 16:44:06;;;;;;;34.57;20.37;;;2.70;99.90;;;;;;10184114;29;20395;-79
2023/01/07 16:49:29;;;;;;;30.53;17.33;;;2.80;99.90;;;;;;10184610;29;20248;-80
2023/01/07 16:54:50;;;;;;;24.20;14.03;;;2.80;99.90;;;;;;10198286;29;20208;-81
2023/01/07 17:00:17;;;;;;;32.70;19.40;;;2.80;99.90;;;;;;10196836;29;20200;-83
2023/01/07 17:05:38;;;;;;;30.03;18.20;;;2.80;99.90;;;;;;10196563;29;20208;-80
2023/01/07 17:11:34;;;;;;;31.70;18.10;;;2.80;99.90;;;;;;10183929;29;20208;-80
2023/01/07 17:16:59;;;;;;;29.33;17.40;;;2.80;99.90;;;;;;10196690;29;20243;-83
2023/01/07 17:22:33;;;;;;;31.07;17.90;;;2.80;99.90;;;;;;10196505;29;20198;-83
2023/01/07 17:28:00;;;;;;;36.23;20.93;;;2.80;99.90;;;;;;10197208;29;20239;-84
2023/01/07 17:33:23;;;;;;;52.13;27.90;;;2.90;99.90;;;;;;10200138;29;20244;-80
2023/01/07 17:38:44;;;;;;;110.73;38.37;;;2.90;99.90;;;;;;10210198;29;20259;-81
2023/01/07 17:44:10;;;;;;;96.17;40.67;;;2.90;99.90;;;;;;10182803;29;20223;-83
2023/01/07 17:49:31;;;;;;;51.80;31.47;;;2.90;99.90;;;;;;10196643;29;20203;-84
2023/01/07 17:54:53;;;;;;;51.57;30.07;;;2.90;99.90;;;;;;10195400;29;20491;-84
2023/01/07 18:00:20;;;;;;;51.87;29.53;;;2.90;99.90;;;;;;10182145;29;20491;-82
2023/01/07 18:05:41;;;;;;;33.20;19.53;;;2.90;99.90;;;;;;10183309;29;20204;-78
2023/01/07 18:16:42;;;;;;;44.33;23.83;;;3.00;99.90;;;;;;10196991;29;20243;-83
2023/01/07 18:22:03;;;;;;;76.90;37.13;;;3.00;99.90;;;;;;10207542;29;20196;-79
2023/01/07 18:27:25;;;;;;;88.77;43.93;;;3.00;99.90;;;;;;10227313;29;20236;-79
2023/01/07 18:32:47;;;;;;;91.83;47.37;;;2.90;99.90;;;;;;10202860;29;20491;-80
2023/01/07 18:38:12;;;;;;;91.27;45.83;;;3.00;99.90;;;;;;10207904;29;20227;-82
2023/01/07 18:43:33;;;;;;;65.77;36.67;;;3.00;99.90;;;;;;10168612;29;20205;-80
2023/01/07 18:48:55;;;;;;;69.37;36.73;;;2.90;99.90;;;;;;10163166;29;20203;-78
2023/01/07 18:54:16;;;;;;;60.90;33.90;;;2.90;99.90;;;;;;10164677;29;20257;-79
2023/01/07 18:59:37;;;;;;;57.97;31.87;;;2.90;99.90;;;;;;10161855;29;20436;-82
2023/01/07 19:04:58;;;;;;;71.10;38.20;;;3.00;99.90;;;;;;10164909;29;20205;-79
2023/01/07 19:10:24;;;;;;;85.30;39.63;;;3.00;99.90;;;;;;10174718;29;20205;-82
2023/01/07 19:15:45;;;;;;;112.00;47.57;;;3.00;99.90;;;;;;10163611;29;20221;-84
2023/01/07 19:21:10;;;;;;;157.10;56.80;;;3.00;99.90;;;;;;10161252;29;20205;-83
2023/01/07 19:26:32;;;;;;;164.33;58.47;;;3.10;99.90;;;;;;10163796;29;20233;-78
2023/01/07 19:31:54;;;;;;;135.57;56.77;;;3.10;99.90;;;;;;10161245;29;20266;-80
2023/01/07 19:37:15;;;;;;;120.87;57.07;;;3.10;99.90;;;;;;10147695;29;20265;-79
2023/01/07 19:42:36;;;;;;;114.33;55.90;;;3.10;99.90;;;;;;10159868;29;20198;-81
2023/01/07 19:47:57;;;;;;;105.17;53.00;;;3.10;99.90;;;;;;10162244;29;20197;-81
2023/01/07 19:53:19;;;;;;;106.53;50.50;;;3.20;99.90;;;;;;10161363;29;20196;-83
2023/01/07 19:58:40;;;;;;;83.57;43.00;;;3.20;99.90;;;;;;10173581;29;20224;-79
2023/01/07 20:04:04;;;;;;;88.73;44.67;;;3.20;99.90;;;;;;10159715;29;20193;-79
2023/01/07 20:09:25;;;;;;;82.33;43.97;;;3.20;99.90;;;;;;10158730;29;20385;-79
2023/01/07 20:14:47;;;;;;;74.03;39.63;;;3.10;99.90;;;;;;10162052;29;20201;-81
2023/01/07 20:20:08;;;;;;;72.30;36.23;;;3.20;99.90;;;;;;10145904;29;20340;-82
2023/01/07 20:25:29;;;;;;;72.97;37.07;;;3.20;99.90;;;;;;10145055;29;20530;-82
2023/01/07 20:30:50;;;;;;;72.87;38.00;;;3.20;99.90;;;;;;10179401;29;20227;-82
2023/01/07 20:36:15;;;;;;;65.53;36.60;;;3.20;99.90;;;;;;10210882;29;20212;-79
2023/01/07 20:41:37;;;;;;;51.07;28.77;;;3.20;99.90;;;;;;10183559;29;20300;-79
2023/01/07 20:46:58;;;;;;;44.43;24.87;;;3.30;99.90;;;;;;10183544;29;20206;-78
2023/01/07 20:52:19;;;;;;;42.10;24.67;;;3.20;99.90;;;;;;10196498;29;20207;-81
2023/01/07 20:57:40;;;;;;;38.40;22.43;;;3.30;99.90;;;;;;10183146;29;20304;-81
2023/01/07 21:03:02;;;;;;;41.07;23.63;;;3.30;99.90;;;;;;10196750;29;20214;-79
2023/01/07 21:08:24;;;;;;;40.87;23.27;;;3.30;99.90;;;;;;10213925;29;20249;-78
2023/01/07 21:13:47;;;;;;;38.10;22.03;;;3.30;99.90;;;;;;10205300;29;20535;-78
2023/01/07 21:19:08;;;;;;;40.10;22.37;;;3.30;99.90;;;;;;10196252;29;20228;-79
2023/01/07 21:24:30;;;;;;;41.03;21.20;;;3.30;99.90;;;;;;10182292;29;20204;-82
2023/01/07 21:29:51;;;;;;;37.30;21.87;;;3.30;99.90;;;;;;10195170;29;20212;-82
2023/01/07 21:35:12;;;;;;;38.60;21.57;;;3.30;99.90;;;;;;10182554;29;20205;-79
2023/01/07 21:40:34;;;;;;;33.47;20.13;;;3.30;99.90;;;;;;10196553;29;20268;-81
2023/01/07 21:45:58;;;;;;;32.40;18.97;;;3.40;99.90;;;;;;10196604;29;20196;-82
2023/01/07 21:51:22;;;;;;;32.00;19.10;;;3.40;99.90;;;;;;10195875;29;20289;-79
2023/01/07 21:56:43;;;;;;;33.30;19.70;;;3.40;99.90;;;;;;10168841;29;20231;-82
2023/01/07 22:02:04;;;;;;;34.03;20.27;;;3.40;99.90;;;;;;10183331;29;20200;-81
2023/01/07 22:07:25;;;;;;;36.10;20.17;;;3.40;99.90;;;;;;10202699;29;20205;-84
2023/01/07 22:12:46;;;;;;;37.40;21.60;;;3.50;99.90;;;;;;10202420;29;20226;-78
2023/01/07 22:18:08;;;;;;;35.30;21.10;;;3.50;99.90;;;;;;10202282;29;20433;-83
2023/01/07 22:23:29;;;;;;;35.90;20.77;;;3.50;99.90;;;;;;10215507;29;20349;-82
2023/01/07 22:28:53;;;;;;;37.77;20.13;;;3.50;99.90;;;;;;10216124;29;20316;-84
2023/01/07 22:34:14;;;;;;;33.80;20.10;;;3.50;99.90;;;;;;10241653;29;20189;-80
2023/01/07 22:39:40;;;;;;;33.83;20.30;;;3.50;99.90;;;;;;10227481;29;20260;-80
2023/01/07 22:45:06;;;;;;;31.17;19.50;;;3.50;99.90;;;;;;10227598;29;20496;-82
2023/01/07 22:50:28;;;;;;;36.87;22.17;;;3.50;99.90;;;;;;10214214;29;20207;-80
2023/01/07 22:55:49;;;;;;;33.47;20.10;;;3.50;99.90;;;;;;10227646;29;20210;-79
2023/01/07 23:01:13;;;;;;;35.57;20.23;;;3.50;99.90;;;;;;10257172;28;20205;-82
2023/01/07 23:06:34;;;;;;;30.23;16.43;;;3.50;99.90;;;;;;10227733;29;20204;-82
2023/01/07 23:11:59;;;;;;;32.60;18.83;;;3.60;99.90;;;;;;10246088;29;20215;-78
2023/01/07 23:17:20;;;;;;;36.47;18.23;;;3.60;99.90;;;;;;10226904;29;20231;-82
2023/01/07 23:22:42;;;;;;;34.33;20.90;;;3.60;99.90;;;;;;10258355;29;20204;-79
2023/01/07 23:28:03;;;;;;;37.17;19.90;;;3.60;99.90;;;;;;10212861;29;20247;-79
2023/01/07 23:33:24;;;;;;;31.00;17.97;;;3.60;99.90;;;;;;10186197;29;20212;-82
2023/01/07 23:38:46;;;;;;;30.43;17.90;;;3.70;99.90;;;;;;10198977;29;20268;-84
2023/01/07 23:44:07;;;;;;;31.13;17.63;;;3.70;99.90;;;;;;10202153;29;20362;-82
2023/01/07 23:49:28;;;;;;;32.47;18.47;;;3.70;99.90;;;;;;10204038;29;20223;-79
2023/01/07 23:54:49;;;;;;;32.03;18.63;;;3.70;99.90;;;;;;10198274;29;20204;-81
